sensor_id;sensor_type;location;lat;lon;timestamp;P1;durP1;ratioP1;P2;durP2;ratioP2
32080;SDS011;18593;51.426;7.030;2023-09-12T00:00:45;4.95;;;2.90;;
32080;SDS011;18593;51.426;7.030;2023-09-12T00:03:13;5.53;;;3.25;;
32080;SDS011;18593;51.426;7.030;2023-09-12T00:05:41;7.15;;;3.70;;
32080;SDS011;18593;51.426;7.030;2023-09-12T00:08:08;8.45;;;3.90;;
32080;SDS011;18593;51.426;7.030;2023-09-12T00:10:35;7.20;;;4.03;;
32080;SDS011;18593;51.426;7.030;2023-09-12T00:13:03;7.68;;;4.55;;
32080;SDS011;18593;51.426;7.030;2023-09-12T00:15:31;5.75;;;3.53;;
32080;SDS011;18593;51.426;7.030;2023-09-12T00:17:59;6.55;;;3.72;;
32080;SDS011;18593;51.426;7.030;2023-09-12T00:20:28;6.43;;;3.90;;
32080;SDS011;18593;51.426;7.030;2023-09-12T00:22:55;6.45;;;3.92;;
32080;SDS011;18593;51.426;7.030;2023-09-12T00:25:22;9.15;;;4.10;;
32080;SDS011;18593;51.426;7.030;2023-09-12T00:27:50;9.40;;;4.65;;
32080;SDS011;18593;51.426;7.030;2023-09-12T00:30:17;7.90;;;4.45;;
32080;SDS011;18593;51.426;7.030;2023-09-12T00:32:49;7.00;;;4.47;;
32080;SDS011;18593;51.426;7.030;2023-09-12T00:35:16;8.38;;;4.00;;
32080;SDS011;18593;51.426;7.030;2023-09-12T00:37:44;5.40;;;3.53;;
32080;SDS011;18593;51.426;7.030;2023-09-12T00:40:11;7.50;;;4.15;;
32080;SDS011;18593;51.426;7.030;2023-09-12T00:42:39;7.90;;;4.32;;
32080;SDS011;18593;51.426;7.030;2023-09-12T00:45:07;7.53;;;4.70;;
32080;SDS011;18593;51.426;7.030;2023-09-12T00:47:35;8.57;;;5.07;;
32080;SDS011;18593;51.426;7.030;2023-09-12T00:50:04;8.18;;;5.03;;
32080;SDS011;18593;51.426;7.030;2023-09-12T00:52:34;9.50;;;5.90;;
32080;SDS011;18593;51.426;7.030;2023-09-12T00:55:03;11.20;;;6.35;;
32080;SDS011;18593;51.426;7.030;2023-09-12T00:57:32;13.50;;;9.00;;
32080;SDS011;18593;51.426;7.030;2023-09-12T01:00:01;16.58;;;9.50;;
32080;SDS011;18593;51.426;7.030;2023-09-12T01:02:36;14.52;;;9.75;;
32080;SDS011;18593;51.426;7.030;2023-09-12T01:05:07;13.57;;;8.32;;
32080;SDS011;18593;51.426;7.030;2023-09-12T01:07:35;12.65;;;8.38;;
32080;SDS011;18593;51.426;7.030;2023-09-12T01:10:04;15.35;;;10.02;;
32080;SDS011;18593;51.426;7.030;2023-09-12T01:12:33;15.40;;;10.15;;
32080;SDS011;18593;51.426;7.030;2023-09-12T01:15:00;15.73;;;9.85;;
32080;SDS011;18593;51.426;7.030;2023-09-12T01:17:31;14.88;;;10.20;;
32080;SDS011;18593;51.426;7.030;2023-09-12T01:19:58;13.00;;;8.70;;
32080;SDS011;18593;51.426;7.030;2023-09-12T01:22:34;17.02;;;11.05;;
32080;SDS011;18593;51.426;7.030;2023-09-12T01:25:29;18.90;;;12.10;;
32080;SDS011;18593;51.426;7.030;2023-09-12T01:28:29;17.15;;;11.82;;
32080;SDS011;18593;51.426;7.030;2023-09-12T01:31:00;18.05;;;10.95;;
32080;SDS011;18593;51.426;7.030;2023-09-12T01:33:29;16.25;;;9.75;;
32080;SDS011;18593;51.426;7.030;2023-09-12T01:35:56;15.63;;;9.50;;
32080;SDS011;18593;51.426;7.030;2023-09-12T01:38:23;15.70;;;10.38;;
32080;SDS011;18593;51.426;7.030;2023-09-12T01:40:53;16.02;;;9.77;;
32080;SDS011;18593;51.426;7.030;2023-09-12T01:43:23;18.83;;;10.03;;
32080;SDS011;18593;51.426;7.030;2023-09-12T01:45:55;22.98;;;13.38;;
32080;SDS011;18593;51.426;7.030;2023-09-12T01:48:28;21.85;;;13.85;;
32080;SDS011;18593;51.426;7.030;2023-09-12T01:51:01;23.42;;;14.85;;
32080;SDS011;18593;51.426;7.030;2023-09-12T01:53:30;19.73;;;13.25;;
32080;SDS011;18593;51.426;7.030;2023-09-12T01:55:59;18.02;;;12.20;;
32080;SDS011;18593;51.426;7.030;2023-09-12T01:58:27;19.73;;;13.27;;
32080;SDS011;18593;51.426;7.030;2023-09-12T02:00:58;26.90;;;13.80;;
32080;SDS011;18593;51.426;7.030;2023-09-12T02:03:25;18.95;;;13.35;;
32080;SDS011;18593;51.426;7.030;2023-09-12T02:05:53;20.95;;;13.88;;
32080;SDS011;18593;51.426;7.030;2023-09-12T02:08:20;27.45;;;18.33;;
32080;SDS011;18593;51.426;7.030;2023-09-12T02:10:47;30.88;;;21.48;;
32080;SDS011;18593;51.426;7.030;2023-09-12T02:13:14;27.80;;;20.55;;
32080;SDS011;18593;51.426;7.030;2023-09-12T02:15:42;33.00;;;21.30;;
32080;SDS011;18593;51.426;7.030;2023-09-12T02:18:11;34.33;;;22.33;;
32080;SDS011;18593;51.426;7.030;2023-09-12T02:20:38;35.88;;;23.95;;
32080;SDS011;18593;51.426;7.030;2023-09-12T02:23:10;31.67;;;21.63;;
32080;SDS011;18593;51.426;7.030;2023-09-12T02:25:38;29.25;;;20.02;;
32080;SDS011;18593;51.426;7.030;2023-09-12T02:28:05;32.40;;;20.60;;
32080;SDS011;18593;51.426;7.030;2023-09-12T02:30:33;32.40;;;21.30;;
32080;SDS011;18593;51.426;7.030;2023-09-12T02:33:00;31.40;;;22.17;;
32080;SDS011;18593;51.426;7.030;2023-09-12T02:35:29;32.53;;;21.52;;
32080;SDS011;18593;51.426;7.030;2023-09-12T02:37:56;31.80;;;21.80;;
32080;SDS011;18593;51.426;7.030;2023-09-12T02:40:24;28.73;;;19.98;;
32080;SDS011;18593;51.426;7.030;2023-09-12T02:42:51;32.15;;;21.05;;
32080;SDS011;18593;51.426;7.030;2023-09-12T02:45:19;28.17;;;19.52;;
32080;SDS011;18593;51.426;7.030;2023-09-12T02:47:46;32.13;;;20.38;;
32080;SDS011;18593;51.426;7.030;2023-09-12T02:50:13;31.05;;;21.30;;
32080;SDS011;18593;51.426;7.030;2023-09-12T02:52:42;28.27;;;20.42;;
32080;SDS011;18593;51.426;7.030;2023-09-12T02:55:09;30.27;;;19.58;;
32080;SDS011;18593;51.426;7.030;2023-09-12T02:57:37;28.13;;;18.70;;
32080;SDS011;18593;51.426;7.030;2023-09-12T03:00:04;26.73;;;17.83;;
32080;SDS011;18593;51.426;7.030;2023-09-12T03:02:34;28.73;;;18.20;;
32080;SDS011;18593;51.426;7.030;2023-09-12T03:05:02;28.65;;;18.05;;
32080;SDS011;18593;51.426;7.030;2023-09-12T03:07:31;26.77;;;17.73;;
32080;SDS011;18593;51.426;7.030;2023-09-12T03:09:59;25.60;;;17.60;;
32080;SDS011;18593;51.426;7.030;2023-09-12T03:12:27;28.50;;;18.27;;
32080;SDS011;18593;51.426;7.030;2023-09-12T03:14:54;28.90;;;19.85;;
32080;SDS011;18593;51.426;7.030;2023-09-12T03:17:22;29.65;;;20.27;;
32080;SDS011;18593;51.426;7.030;2023-09-12T03:19:50;31.30;;;20.02;;
32080;SDS011;18593;51.426;7.030;2023-09-12T03:22:18;32.85;;;20.67;;
32080;SDS011;18593;51.426;7.030;2023-09-12T03:24:45;30.95;;;19.58;;
32080;SDS011;18593;51.426;7.030;2023-09-12T03:27:15;28.55;;;18.73;;
32080;SDS011;18593;51.426;7.030;2023-09-12T03:29:42;27.33;;;18.65;;
32080;SDS011;18593;51.426;7.030;2023-09-12T03:34:40;27.92;;;18.00;;
32080;SDS011;18593;51.426;7.030;2023-09-12T03:37:08;25.45;;;16.33;;
32080;SDS011;18593;51.426;7.030;2023-09-12T03:39:35;24.63;;;17.48;;
32080;SDS011;18593;51.426;7.030;2023-09-12T03:42:03;25.05;;;16.52;;
32080;SDS011;18593;51.426;7.030;2023-09-12T03:44:32;23.48;;;17.35;;
32080;SDS011;18593;51.426;7.030;2023-09-12T03:46:59;23.70;;;16.65;;
32080;SDS011;18593;51.426;7.030;2023-09-12T03:49:27;27.42;;;17.92;;
32080;SDS011;18593;51.426;7.030;2023-09-12T03:51:54;23.10;;;15.88;;
32080;SDS011;18593;51.426;7.030;2023-09-12T03:54:22;24.08;;;16.42;;
32080;SDS011;18593;51.426;7.030;2023-09-12T03:56:50;21.85;;;15.30;;
32080;SDS011;18593;51.426;7.030;2023-09-12T03:59:17;21.55;;;15.13;;
32080;SDS011;18593;51.426;7.030;2023-09-12T04:01:46;28.30;;;15.07;;
32080;SDS011;18593;51.426;7.030;2023-09-12T04:04:14;20.10;;;14.52;;
32080;SDS011;18593;51.426;7.030;2023-09-12T04:06:41;22.48;;;14.73;;
32080;SDS011;18593;51.426;7.030;2023-09-12T04:09:08;22.38;;;14.00;;
32080;SDS011;18593;51.426;7.030;2023-09-12T04:11:36;23.35;;;13.77;;
32080;SDS011;18593;51.426;7.030;2023-09-12T04:14:03;18.88;;;13.70;;
32080;SDS011;18593;51.426;7.030;2023-09-12T04:16:30;22.20;;;13.70;;
32080;SDS011;18593;51.426;7.030;2023-09-12T04:19:00;19.52;;;13.15;;
32080;SDS011;18593;51.426;7.030;2023-09-12T04:21:28;19.88;;;13.07;;
32080;SDS011;18593;51.426;7.030;2023-09-12T04:23:55;17.48;;;12.23;;
32080;SDS011;18593;51.426;7.030;2023-09-12T04:26:22;19.45;;;12.95;;
32080;SDS011;18593;51.426;7.030;2023-09-12T04:28:50;18.17;;;13.05;;
32080;SDS011;18593;51.426;7.030;2023-09-12T04:31:17;18.75;;;13.52;;
32080;SDS011;18593;51.426;7.030;2023-09-12T04:33:44;16.55;;;12.23;;
32080;SDS011;18593;51.426;7.030;2023-09-12T04:36:13;17.63;;;12.38;;
32080;SDS011;18593;51.426;7.030;2023-09-12T04:38:40;17.90;;;12.23;;
32080;SDS011;18593;51.426;7.030;2023-09-12T04:41:08;19.15;;;12.52;;
32080;SDS011;18593;51.426;7.030;2023-09-12T04:43:35;17.75;;;12.13;;
32080;SDS011;18593;51.426;7.030;2023-09-12T04:46:03;17.90;;;11.98;;
32080;SDS011;18593;51.426;7.030;2023-09-12T04:48:30;15.98;;;11.35;;
32080;SDS011;18593;51.426;7.030;2023-09-12T04:50:57;17.83;;;11.35;;
32080;SDS011;18593;51.426;7.030;2023-09-12T04:53:26;21.48;;;12.48;;
32080;SDS011;18593;51.426;7.030;2023-09-12T04:55:59;24.63;;;11.68;;
32080;SDS011;18593;51.426;7.030;2023-09-12T04:58:26;15.38;;;11.20;;
32080;SDS011;18593;51.426;7.030;2023-09-12T05:00:53;17.35;;;11.48;;
32080;SDS011;18593;51.426;7.030;2023-09-12T05:03:22;17.05;;;9.93;;
32080;SDS011;18593;51.426;7.030;2023-09-12T05:05:49;14.70;;;9.55;;
32080;SDS011;18593;51.426;7.030;2023-09-12T05:08:18;15.35;;;9.98;;
32080;SDS011;18593;51.426;7.030;2023-09-12T05:10:47;12.98;;;9.20;;
32080;SDS011;18593;51.426;7.030;2023-09-12T05:13:15;12.07;;;9.23;;
32080;SDS011;18593;51.426;7.030;2023-09-12T05:15:43;17.67;;;9.07;;
32080;SDS011;18593;51.426;7.030;2023-09-12T05:18:11;11.65;;;8.18;;
32080;SDS011;18593;51.426;7.030;2023-09-12T05:20:38;14.20;;;8.60;;
32080;SDS011;18593;51.426;7.030;2023-09-12T05:23:05;20.10;;;9.95;;
32080;SDS011;18593;51.426;7.030;2023-09-12T05:25:33;15.40;;;8.68;;
32080;SDS011;18593;51.426;7.030;2023-09-12T05:28:02;16.80;;;9.05;;
32080;SDS011;18593;51.426;7.030;2023-09-12T05:30:30;28.30;;;10.75;;
32080;SDS011;18593;51.426;7.030;2023-09-12T05:32:58;19.85;;;10.35;;
32080;SDS011;18593;51.426;7.030;2023-09-12T05:35:25;18.33;;;10.30;;
32080;SDS011;18593;51.426;7.030;2023-09-12T05:37:53;16.50;;;10.25;;
32080;SDS011;18593;51.426;7.030;2023-09-12T05:40:20;15.43;;;10.20;;
32080;SDS011;18593;51.426;7.030;2023-09-12T05:42:47;16.63;;;9.55;;
32080;SDS011;18593;51.426;7.030;2023-09-12T05:45:16;17.13;;;10.32;;
32080;SDS011;18593;51.426;7.030;2023-09-12T05:47:43;15.55;;;9.63;;
32080;SDS011;18593;51.426;7.030;2023-09-12T05:50:11;14.43;;;9.95;;
32080;SDS011;18593;51.426;7.030;2023-09-12T05:52:43;16.88;;;10.40;;
32080;SDS011;18593;51.426;7.030;2023-09-12T05:55:12;15.40;;;10.20;;
32080;SDS011;18593;51.426;7.030;2023-09-12T05:57:39;14.27;;;9.50;;
32080;SDS011;18593;51.426;7.030;2023-09-12T06:00:07;17.05;;;10.15;;
32080;SDS011;18593;51.426;7.030;2023-09-12T06:02:42;15.98;;;10.73;;
32080;SDS011;18593;51.426;7.030;2023-09-12T06:05:11;17.02;;;10.90;;
32080;SDS011;18593;51.426;7.030;2023-09-12T06:07:38;16.13;;;10.55;;
32080;SDS011;18593;51.426;7.030;2023-09-12T06:10:06;15.98;;;10.38;;
32080;SDS011;18593;51.426;7.030;2023-09-12T06:12:34;15.63;;;10.18;;
32080;SDS011;18593;51.426;7.030;2023-09-12T06:15:02;19.25;;;11.68;;
32080;SDS011;18593;51.426;7.030;2023-09-12T06:17:30;15.82;;;10.63;;
32080;SDS011;18593;51.426;7.030;2023-09-12T06:19:59;15.20;;;10.07;;
32080;SDS011;18593;51.426;7.030;2023-09-12T06:22:26;18.15;;;9.95;;
32080;SDS011;18593;51.426;7.030;2023-09-12T06:24:54;15.57;;;9.52;;
32080;SDS011;18593;51.426;7.030;2023-09-12T06:27:21;15.85;;;10.43;;
32080;SDS011;18593;51.426;7.030;2023-09-12T06:29:49;20.65;;;12.48;;
32080;SDS011;18593;51.426;7.030;2023-09-12T06:32:17;26.77;;;18.05;;
32080;SDS011;18593;51.426;7.030;2023-09-12T06:34:44;40.03;;;21.15;;
32080;SDS011;18593;51.426;7.030;2023-09-12T06:37:13;37.75;;;21.83;;
32080;SDS011;18593;51.426;7.030;2023-09-12T06:39:41;22.30;;;14.20;;
32080;SDS011;18593;51.426;7.030;2023-09-12T06:42:08;21.50;;;13.23;;
32080;SDS011;18593;51.426;7.030;2023-09-12T06:44:36;22.13;;;12.23;;
32080;SDS011;18593;51.426;7.030;2023-09-12T06:47:03;19.73;;;10.18;;
32080;SDS011;18593;51.426;7.030;2023-09-12T06:49:31;12.90;;;6.43;;
32080;SDS011;18593;51.426;7.030;2023-09-12T06:52:01;11.18;;;5.32;;
32080;SDS011;18593;51.426;7.030;2023-09-12T06:54:30;15.65;;;4.95;;
32080;SDS011;18593;51.426;7.030;2023-09-12T06:56:59;10.85;;;5.05;;
32080;SDS011;18593;51.426;7.030;2023-09-12T06:59:26;16.67;;;5.20;;
32080;SDS011;18593;51.426;7.030;2023-09-12T07:01:53;9.57;;;5.05;;
32080;SDS011;18593;51.426;7.030;2023-09-12T07:04:20;11.48;;;5.05;;
32080;SDS011;18593;51.426;7.030;2023-09-12T07:06:48;16.60;;;6.20;;
32080;SDS011;18593;51.426;7.030;2023-09-12T07:09:16;11.15;;;5.35;;
32080;SDS011;18593;51.426;7.030;2023-09-12T07:11:47;10.82;;;4.95;;
32080;SDS011;18593;51.426;7.030;2023-09-12T07:14:14;9.03;;;4.50;;
32080;SDS011;18593;51.426;7.030;2023-09-12T07:16:42;11.30;;;4.70;;
32080;SDS011;18593;51.426;7.030;2023-09-12T07:19:09;10.55;;;5.13;;
32080;SDS011;18593;51.426;7.030;2023-09-12T07:21:36;11.38;;;4.80;;
32080;SDS011;18593;51.426;7.030;2023-09-12T07:24:03;10.10;;;5.20;;
32080;SDS011;18593;51.426;7.030;2023-09-12T07:26:32;10.40;;;4.78;;
32080;SDS011;18593;51.426;7.030;2023-09-12T07:29:00;11.93;;;5.10;;
32080;SDS011;18593;51.426;7.030;2023-09-12T07:33:57;13.43;;;5.20;;
32080;SDS011;18593;51.426;7.030;2023-09-12T07:36:25;11.32;;;5.32;;
32080;SDS011;18593;51.426;7.030;2023-09-12T07:38:52;14.35;;;5.60;;
32080;SDS011;18593;51.426;7.030;2023-09-12T07:41:19;8.18;;;4.53;;
32080;SDS011;18593;51.426;7.030;2023-09-12T07:43:46;10.93;;;4.90;;
32080;SDS011;18593;51.426;7.030;2023-09-12T07:46:15;9.45;;;4.20;;
32080;SDS011;18593;51.426;7.030;2023-09-12T07:48:42;7.82;;;3.90;;
32080;SDS011;18593;51.426;7.030;2023-09-12T07:51:12;8.20;;;3.42;;
32080;SDS011;18593;51.426;7.030;2023-09-12T07:53:42;8.77;;;4.05;;
32080;SDS011;18593;51.426;7.030;2023-09-12T07:56:10;7.63;;;4.13;;
32080;SDS011;18593;51.426;7.030;2023-09-12T07:58:37;10.98;;;4.70;;
32080;SDS011;18593;51.426;7.030;2023-09-12T08:01:05;7.95;;;4.28;;
32080;SDS011;18593;51.426;7.030;2023-09-12T08:03:34;13.00;;;4.88;;
32080;SDS011;18593;51.426;7.030;2023-09-12T08:08:31;9.73;;;4.55;;
32080;SDS011;18593;51.426;7.030;2023-09-12T08:10:58;11.75;;;5.18;;
32080;SDS011;18593;51.426;7.030;2023-09-12T08:13:25;12.75;;;4.50;;
32080;SDS011;18593;51.426;7.030;2023-09-12T08:15:54;9.45;;;5.18;;
32080;SDS011;18593;51.426;7.030;2023-09-12T08:18:21;12.15;;;4.25;;
32080;SDS011;18593;51.426;7.030;2023-09-12T08:23:21;7.50;;;3.83;;
32080;SDS011;18593;51.426;7.030;2023-09-12T08:25:48;7.93;;;4.28;;
32080;SDS011;18593;51.426;7.030;2023-09-12T08:28:16;9.82;;;4.50;;
32080;SDS011;18593;51.426;7.030;2023-09-12T08:30:44;10.23;;;4.70;;
32080;SDS011;18593;51.426;7.030;2023-09-12T08:33:11;8.10;;;3.90;;
32080;SDS011;18593;51.426;7.030;2023-09-12T08:35:38;8.07;;;4.65;;
32080;SDS011;18593;51.426;7.030;2023-09-12T08:38:07;9.50;;;4.75;;
32080;SDS011;18593;51.426;7.030;2023-09-12T08:43:10;9.60;;;5.65;;
32080;SDS011;18593;51.426;7.030;2023-09-12T08:45:37;11.40;;;5.93;;
32080;SDS011;18593;51.426;7.030;2023-09-12T08:48:04;13.75;;;5.85;;
32080;SDS011;18593;51.426;7.030;2023-09-12T08:50:33;9.32;;;6.38;;
32080;SDS011;18593;51.426;7.030;2023-09-12T08:53:01;10.70;;;6.28;;
32080;SDS011;18593;51.426;7.030;2023-09-12T08:55:30;15.85;;;6.80;;
32080;SDS011;18593;51.426;7.030;2023-09-12T08:57:58;11.05;;;6.60;;
32080;SDS011;18593;51.426;7.030;2023-09-12T09:00:28;11.00;;;7.25;;
32080;SDS011;18593;51.426;7.030;2023-09-12T09:02:55;13.38;;;7.60;;
32080;SDS011;18593;51.426;7.030;2023-09-12T09:05:23;12.48;;;6.88;;
32080;SDS011;18593;51.426;7.030;2023-09-12T09:07:54;9.10;;;6.30;;
32080;SDS011;18593;51.426;7.030;2023-09-12T09:10:22;9.02;;;6.13;;
32080;SDS011;18593;51.426;7.030;2023-09-12T09:12:53;9.95;;;5.60;;
32080;SDS011;18593;51.426;7.030;2023-09-12T09:15:20;10.68;;;6.95;;
32080;SDS011;18593;51.426;7.030;2023-09-12T09:17:52;8.18;;;6.25;;
32080;SDS011;18593;51.426;7.030;2023-09-12T09:20:21;10.65;;;6.70;;
32080;SDS011;18593;51.426;7.030;2023-09-12T09:22:59;10.48;;;6.75;;
32080;SDS011;18593;51.426;7.030;2023-09-12T09:25:30;12.07;;;7.45;;
32080;SDS011;18593;51.426;7.030;2023-09-12T09:27:59;13.32;;;7.63;;
32080;SDS011;18593;51.426;7.030;2023-09-12T09:30:40;12.45;;;7.05;;
32080;SDS011;18593;51.426;7.030;2023-09-12T09:33:10;11.43;;;7.13;;
32080;SDS011;18593;51.426;7.030;2023-09-12T09:35:38;9.82;;;6.90;;
32080;SDS011;18593;51.426;7.030;2023-09-12T09:38:08;9.13;;;6.47;;
32080;SDS011;18593;51.426;7.030;2023-09-12T09:40:41;11.02;;;7.05;;
32080;SDS011;18593;51.426;7.030;2023-09-12T09:43:10;10.30;;;6.93;;
32080;SDS011;18593;51.426;7.030;2023-09-12T09:45:42;7.93;;;5.55;;
32080;SDS011;18593;51.426;7.030;2023-09-12T09:48:17;6.80;;;4.97;;
32080;SDS011;18593;51.426;7.030;2023-09-12T09:50:45;8.80;;;4.70;;
32080;SDS011;18593;51.426;7.030;2023-09-12T09:53:13;7.43;;;4.13;;
32080;SDS011;18593;51.426;7.030;2023-09-12T09:55:40;6.15;;;4.18;;
32080;SDS011;18593;51.426;7.030;2023-09-12T09:58:08;8.93;;;4.57;;
32080;SDS011;18593;51.426;7.030;2023-09-12T10:00:41;6.25;;;4.07;;
32080;SDS011;18593;51.426;7.030;2023-09-12T10:03:09;14.73;;;4.95;;
32080;SDS011;18593;51.426;7.030;2023-09-12T10:05:38;7.25;;;4.53;;
32080;SDS011;18593;51.426;7.030;2023-09-12T10:08:08;7.82;;;3.38;;
32080;SDS011;18593;51.426;7.030;2023-09-12T10:10:42;5.65;;;3.30;;
32080;SDS011;18593;51.426;7.030;2023-09-12T10:13:11;6.72;;;3.60;;
32080;SDS011;18593;51.426;7.030;2023-09-12T10:15:40;5.78;;;3.03;;
32080;SDS011;18593;51.426;7.030;2023-09-12T10:18:09;6.57;;;3.22;;
32080;SDS011;18593;51.426;7.030;2023-09-12T10:20:47;6.00;;;3.35;;
32080;SDS011;18593;51.426;7.030;2023-09-12T10:23:19;6.63;;;3.00;;
32080;SDS011;18593;51.426;7.030;2023-09-12T10:25:52;5.78;;;3.00;;
32080;SDS011;18593;51.426;7.030;2023-09-12T10:28:24;8.77;;;4.43;;
32080;SDS011;18593;51.426;7.030;2023-09-12T10:30:52;9.67;;;3.40;;
32080;SDS011;18593;51.426;7.030;2023-09-12T10:33:23;4.90;;;2.80;;
32080;SDS011;18593;51.426;7.030;2023-09-12T10:35:56;5.05;;;2.80;;
32080;SDS011;18593;51.426;7.030;2023-09-12T10:38:25;4.50;;;2.88;;
32080;SDS011;18593;51.426;7.030;2023-09-12T10:40:54;5.68;;;2.70;;
32080;SDS011;18593;51.426;7.030;2023-09-12T10:43:25;5.13;;;2.75;;
32080;SDS011;18593;51.426;7.030;2023-09-12T10:45:54;4.55;;;2.95;;
32080;SDS011;18593;51.426;7.030;2023-09-12T10:48:24;7.28;;;3.08;;
32080;SDS011;18593;51.426;7.030;2023-09-12T10:50:52;5.93;;;3.15;;
32080;SDS011;18593;51.426;7.030;2023-09-12T10:53:19;4.95;;;3.10;;
32080;SDS011;18593;51.426;7.030;2023-09-12T10:55:59;5.28;;;2.97;;
32080;SDS011;18593;51.426;7.030;2023-09-12T10:58:29;6.15;;;3.38;;
32080;SDS011;18593;51.426;7.030;2023-09-12T11:03:50;5.13;;;3.50;;
32080;SDS011;18593;51.426;7.030;2023-09-12T11:06:22;6.05;;;3.40;;
32080;SDS011;18593;51.426;7.030;2023-09-12T11:11:45;5.97;;;3.10;;
32080;SDS011;18593;51.426;7.030;2023-09-12T11:14:15;5.63;;;3.80;;
32080;SDS011;18593;51.426;7.030;2023-09-12T11:16:43;6.07;;;3.90;;
32080;SDS011;18593;51.426;7.030;2023-09-12T11:19:30;7.82;;;4.50;;
32080;SDS011;18593;51.426;7.030;2023-09-12T11:22:20;8.35;;;5.90;;
32080;SDS011;18593;51.426;7.030;2023-09-12T11:24:49;7.32;;;5.93;;
32080;SDS011;18593;51.426;7.030;2023-09-12T11:27:17;8.60;;;6.75;;
32080;SDS011;18593;51.426;7.030;2023-09-12T11:32:30;10.00;;;6.18;;
32080;SDS011;18593;51.426;7.030;2023-09-12T11:34:59;9.45;;;6.40;;
32080;SDS011;18593;51.426;7.030;2023-09-12T11:37:31;8.13;;;5.47;;
32080;SDS011;18593;51.426;7.030;2023-09-12T11:40:02;7.47;;;5.22;;
32080;SDS011;18593;51.426;7.030;2023-09-12T11:42:43;7.75;;;5.15;;
32080;SDS011;18593;51.426;7.030;2023-09-12T11:45:11;7.40;;;5.47;;
32080;SDS011;18593;51.426;7.030;2023-09-12T11:47:41;8.63;;;5.57;;
32080;SDS011;18593;51.426;7.030;2023-09-12T11:52:58;8.15;;;5.03;;
32080;SDS011;18593;51.426;7.030;2023-09-12T11:55:33;7.78;;;5.90;;
32080;SDS011;18593;51.426;7.030;2023-09-12T11:58:05;9.75;;;5.75;;
32080;SDS011;18593;51.426;7.030;2023-09-12T12:00:33;6.78;;;5.30;;
32080;SDS011;18593;51.426;7.030;2023-09-12T12:03:01;8.23;;;5.30;;
32080;SDS011;18593;51.426;7.030;2023-09-12T12:05:30;8.55;;;5.60;;
32080;SDS011;18593;51.426;7.030;2023-09-12T12:07:58;9.00;;;5.10;;
32080;SDS011;18593;51.426;7.030;2023-09-12T12:10:26;7.50;;;5.00;;
32080;SDS011;18593;51.426;7.030;2023-09-12T12:12:53;8.50;;;5.53;;
32080;SDS011;18593;51.426;7.030;2023-09-12T12:15:21;8.35;;;5.10;;
32080;SDS011;18593;51.426;7.030;2023-09-12T12:17:48;10.82;;;5.70;;
32080;SDS011;18593;51.426;7.030;2023-09-12T12:20:21;8.23;;;5.00;;
32080;SDS011;18593;51.426;7.030;2023-09-12T12:22:49;7.60;;;5.72;;
32080;SDS011;18593;51.426;7.030;2023-09-12T12:25:17;7.13;;;5.45;;
32080;SDS011;18593;51.426;7.030;2023-09-12T12:27:45;9.07;;;5.60;;
32080;SDS011;18593;51.426;7.030;2023-09-12T12:30:12;8.20;;;6.10;;
32080;SDS011;18593;51.426;7.030;2023-09-12T12:32:41;9.95;;;6.25;;
32080;SDS011;18593;51.426;7.030;2023-09-12T12:35:16;8.98;;;5.97;;
32080;SDS011;18593;51.426;7.030;2023-09-12T12:37:46;8.68;;;6.60;;
32080;SDS011;18593;51.426;7.030;2023-09-12T12:40:15;10.02;;;6.53;;
32080;SDS011;18593;51.426;7.030;2023-09-12T12:42:43;11.23;;;6.85;;
32080;SDS011;18593;51.426;7.030;2023-09-12T12:45:12;10.73;;;6.65;;
32080;SDS011;18593;51.426;7.030;2023-09-12T12:47:41;10.55;;;6.78;;
32080;SDS011;18593;51.426;7.030;2023-09-12T12:50:10;10.38;;;6.90;;
32080;SDS011;18593;51.426;7.030;2023-09-12T12:52:38;11.70;;;6.35;;
32080;SDS011;18593;51.426;7.030;2023-09-12T12:55:09;11.45;;;6.20;;
32080;SDS011;18593;51.426;7.030;2023-09-12T13:00:06;7.90;;;5.95;;
32080;SDS011;18593;51.426;7.030;2023-09-12T13:02:36;10.48;;;6.35;;
32080;SDS011;18593;51.426;7.030;2023-09-12T13:05:04;7.30;;;5.43;;
32080;SDS011;18593;51.426;7.030;2023-09-12T13:07:45;10.07;;;5.85;;
32080;SDS011;18593;51.426;7.030;2023-09-12T13:10:14;10.07;;;5.78;;
32080;SDS011;18593;51.426;7.030;2023-09-12T13:12:41;9.45;;;5.93;;
32080;SDS011;18593;51.426;7.030;2023-09-12T13:15:11;13.20;;;6.47;;
32080;SDS011;18593;51.426;7.030;2023-09-12T13:17:38;9.48;;;5.88;;
32080;SDS011;18593;51.426;7.030;2023-09-12T13:20:07;8.15;;;5.45;;
32080;SDS011;18593;51.426;7.030;2023-09-12T13:22:35;7.75;;;5.53;;
32080;SDS011;18593;51.426;7.030;2023-09-12T13:25:04;10.30;;;5.72;;
32080;SDS011;18593;51.426;7.030;2023-09-12T13:27:35;9.50;;;5.37;;
32080;SDS011;18593;51.426;7.030;2023-09-12T13:30:02;7.97;;;5.93;;
32080;SDS011;18593;51.426;7.030;2023-09-12T13:32:31;9.43;;;5.38;;
32080;SDS011;18593;51.426;7.030;2023-09-12T13:34:59;9.13;;;6.13;;
32080;SDS011;18593;51.426;7.030;2023-09-12T13:37:26;9.40;;;5.32;;
32080;SDS011;18593;51.426;7.030;2023-09-12T13:39:55;9.05;;;5.75;;
32080;SDS011;18593;51.426;7.030;2023-09-12T13:42:23;11.38;;;5.70;;
32080;SDS011;18593;51.426;7.030;2023-09-12T13:44:55;8.88;;;6.55;;
32080;SDS011;18593;51.426;7.030;2023-09-12T13:47:22;11.48;;;7.93;;
32080;SDS011;18593;51.426;7.030;2023-09-12T13:49:50;11.00;;;7.10;;
32080;SDS011;18593;51.426;7.030;2023-09-12T13:52:19;10.27;;;7.00;;
32080;SDS011;18593;51.426;7.030;2023-09-12T13:54:46;10.43;;;6.95;;
32080;SDS011;18593;51.426;7.030;2023-09-12T13:57:13;11.30;;;6.82;;
32080;SDS011;18593;51.426;7.030;2023-09-12T13:59:42;8.75;;;6.10;;
32080;SDS011;18593;51.426;7.030;2023-09-12T14:02:11;15.05;;;7.25;;
32080;SDS011;18593;51.426;7.030;2023-09-12T14:04:38;9.88;;;6.68;;
32080;SDS011;18593;51.426;7.030;2023-09-12T14:07:06;10.88;;;6.80;;
32080;SDS011;18593;51.426;7.030;2023-09-12T14:09:36;9.95;;;6.97;;
32080;SDS011;18593;51.426;7.030;2023-09-12T14:12:03;8.88;;;6.32;;
32080;SDS011;18593;51.426;7.030;2023-09-12T14:14:32;10.05;;;8.02;;
32080;SDS011;18593;51.426;7.030;2023-09-12T14:16:59;10.82;;;7.63;;
32080;SDS011;18593;51.426;7.030;2023-09-12T14:19:28;9.85;;;7.03;;
32080;SDS011;18593;51.426;7.030;2023-09-12T14:21:55;10.07;;;6.75;;
32080;SDS011;18593;51.426;7.030;2023-09-12T14:24:23;8.75;;;7.00;;
32080;SDS011;18593;51.426;7.030;2023-09-12T14:26:50;9.38;;;7.65;;
32080;SDS011;18593;51.426;7.030;2023-09-12T14:29:17;13.15;;;8.00;;
32080;SDS011;18593;51.426;7.030;2023-09-12T14:31:44;9.43;;;7.32;;
32080;SDS011;18593;51.426;7.030;2023-09-12T14:34:18;10.32;;;7.13;;
32080;SDS011;18593;51.426;7.030;2023-09-12T14:36:47;14.93;;;7.18;;
32080;SDS011;18593;51.426;7.030;2023-09-12T14:39:14;10.65;;;6.85;;
32080;SDS011;18593;51.426;7.030;2023-09-12T14:41:41;9.07;;;7.10;;
32080;SDS011;18593;51.426;7.030;2023-09-12T14:44:09;12.77;;;7.93;;
32080;SDS011;18593;51.426;7.030;2023-09-12T14:46:38;12.25;;;7.60;;
32080;SDS011;18593;51.426;7.030;2023-09-12T14:49:05;9.43;;;7.85;;
32080;SDS011;18593;51.426;7.030;2023-09-12T14:51:33;11.75;;;7.72;;
32080;SDS011;18593;51.426;7.030;2023-09-12T14:54:02;9.00;;;7.15;;
32080;SDS011;18593;51.426;7.030;2023-09-12T14:56:30;10.50;;;7.32;;
32080;SDS011;18593;51.426;7.030;2023-09-12T14:58:58;12.07;;;8.00;;
32080;SDS011;18593;51.426;7.030;2023-09-12T15:01:25;11.73;;;7.95;;
32080;SDS011;18593;51.426;7.030;2023-09-12T15:03:53;10.57;;;7.90;;
32080;SDS011;18593;51.426;7.030;2023-09-12T15:06:20;12.13;;;8.05;;
32080;SDS011;18593;51.426;7.030;2023-09-12T15:08:48;11.68;;;8.15;;
32080;SDS011;18593;51.426;7.030;2023-09-12T15:11:17;10.10;;;7.85;;